Hlavní strana
METAR-TAF:

METAR-TAF

Letiště :

Pointe-Noire, Kongo

zeměpisná šířka: 04-49S, zeměpisná délka: 011-54E, výška: 17 m

Aktuální stav počasí

Zpráva byla vytvořena před 1 hodinou a 19 minutami, v 10:00 UTC
Západojihozápadní vítr 6 kt, proměnlivý mezi jihojihozápadním a západním
Teplota 29°C
Vlhkost vzduchu 79%
Tlak 1011 hPa
Viditelnost 10 km a více
Polojasno ve výšce 1300 ft
Oblačno až skoro zataženo ve výšce 2300 ft

METAR: FCPP 221000Z 24006KT 200V270 9999 SCT013 BKN023 29/25 Q1011 NOSIG

Čas: 12:19 (11:19 UTC)

Předpověď počasí

Zpráva byla vytvořena před 6 hodinami a 19 minutami, v 05:00 UTC
Předpověď platná od 22 v 06 UTC do 23 v 06 UTC
Jižní vítr 3 kt
Viditelnost: 8000 m
Skoro jasno ve výšce 1000 ft
Oblačno až skoro zataženo ve výšce 2600 ft
Pravděpodobnost 30%
od 22 v 13 UTC do 22 v 15 UTC
Polojasno ve výšce 2600 ft
Skoro jasno ve výšce 3000 ft, Cumulonimbus.

TAF: FCPP 220500Z 2206/2306 17003KT 8000 FEW010 BKN026 PROB30 2213/2215 SCT026 FEW030CB

Stav a předpovědi počasí z více než 4 000 letišť (zprávy METAR a TAF).

Červené a žluté tečky na mapě představují dostupné meteorologické stanice.

Když kurzor umístíte na tečku, zobrazí se název stanice.

Pak kliknutím zobrazíte stav a předpověď počasí.

Chcete-li změnit mapu, kliknutím na zelené tlačítko se znaménkem +mapu přiblížíte, kliknutím na zelené tlačítko se znaménkem – mapu oddálíte a kliknutím na zelené šipky přejdete na sousední mapy.


METAR-TAF: